createdAt,value
2022-11-12T00:01:30.752Z,11.37
2022-11-12T00:06:52.058Z,8.80
2022-11-12T00:12:14.651Z,9.00
2022-11-12T00:17:35.923Z,8.50
2022-11-12T00:22:57.017Z,8.37
2022-11-12T00:28:19.686Z,7.90
2022-11-12T00:33:42.480Z,8.37
2022-11-12T00:39:05.174Z,7.60
2022-11-12T00:44:29.534Z,6.97
2022-11-12T00:49:51.175Z,7.03
2022-11-12T00:55:12.770Z,6.20
2022-11-12T01:00:35.394Z,6.80
2022-11-12T01:06:02.277Z,7.20
2022-11-12T01:11:25.438Z,5.80
2022-11-12T01:16:48.154Z,6.47
2022-11-12T01:22:09.735Z,6.17
2022-11-12T01:27:31.366Z,5.67
2022-11-12T01:32:54.345Z,5.40
2022-11-12T01:38:15.562Z,5.27
2022-11-12T01:43:37.130Z,4.97
2022-11-12T01:49:03.734Z,4.70
2022-11-12T01:54:26.860Z,4.03
2022-11-12T01:59:51.201Z,4.30
2022-11-12T02:05:16.102Z,4.57
2022-11-12T02:10:37.617Z,4.50
2022-11-12T02:15:59.535Z,4.00
2022-11-12T02:21:22.833Z,5.17
2022-11-12T02:26:48.302Z,4.30
2022-11-12T02:32:09.714Z,5.50
2022-11-12T02:37:32.708Z,5.03
2022-11-12T02:42:54.241Z,4.47
2022-11-12T02:48:19.158Z,4.77
2022-11-12T02:53:42.274Z,4.57
2022-11-12T02:59:03.603Z,4.97
2022-11-12T03:04:25.115Z,4.60
2022-11-12T03:09:47.747Z,4.87
2022-11-12T03:15:09.686Z,4.80
2022-11-12T03:20:31.346Z,4.70
2022-11-12T03:25:54.281Z,4.23
2022-11-12T03:31:15.778Z,4.13
2022-11-12T03:36:37.179Z,4.10
2022-11-12T03:41:59.676Z,4.17
2022-11-12T03:47:20.868Z,4.27
2022-11-12T03:52:45.764Z,3.87
2022-11-12T03:58:08.724Z,4.13
2022-11-12T04:03:30.448Z,4.17
2022-11-12T04:08:52.053Z,4.23
2022-11-12T04:14:14.557Z,3.97
2022-11-12T04:19:53.418Z,3.97
2022-11-12T04:25:32.583Z,4.07
2022-11-12T04:30:55.330Z,4.93
2022-11-12T04:36:16.779Z,3.70
2022-11-12T04:42:03.599Z,3.80
2022-11-12T04:47:26.828Z,3.40
2022-11-12T04:52:48.051Z,3.30
2022-11-12T04:58:09.238Z,2.77
2022-11-12T05:03:31.792Z,3.50
2022-11-12T05:08:53.081Z,3.17
2022-11-12T05:14:14.369Z,3.30
2022-11-12T05:19:37.009Z,3.70
2022-11-12T05:24:58.418Z,3.40
2022-11-12T05:30:19.985Z,3.87
2022-11-12T05:35:42.923Z,3.43
2022-11-12T05:41:04.646Z,3.47
2022-11-12T05:46:25.862Z,4.20
2022-11-12T05:51:48.567Z,4.40
2022-11-12T05:57:09.770Z,5.00
2022-11-12T06:02:31.033Z,5.10
2022-11-12T06:07:54.253Z,4.47
2022-11-12T06:13:15.513Z,4.03
2022-11-12T06:18:37.614Z,3.50
2022-11-12T06:24:01.497Z,3.53
2022-11-12T06:29:22.682Z,2.97
2022-11-12T06:34:44.203Z,3.50
2022-11-12T06:40:08.538Z,2.83
2022-11-12T06:45:30.072Z,4.27
2022-11-12T06:50:51.428Z,3.70
2022-11-12T06:56:14.844Z,3.63
2022-11-12T07:01:36.290Z,4.60
2022-11-12T07:06:58.378Z,4.50
2022-11-12T07:12:21.697Z,4.70
2022-11-12T07:17:46.443Z,4.70
2022-11-12T07:23:08.468Z,5.10
2022-11-12T07:28:32.102Z,5.87
2022-11-12T07:33:53.986Z,5.70
2022-11-12T07:39:15.348Z,6.97
2022-11-12T07:44:37.919Z,8.00
2022-11-12T07:50:00.413Z,10.73
2022-11-12T07:55:21.883Z,8.20
2022-11-12T08:00:44.514Z,7.97
2022-11-12T08:06:06.586Z,7.80
2022-11-12T08:11:28.153Z,6.70
2022-11-12T08:16:51.087Z,5.23
2022-11-12T08:22:12.473Z,6.37
2022-11-12T08:27:34.083Z,6.87
2022-11-12T08:33:01.947Z,4.80
2022-11-12T08:38:23.860Z,5.50
2022-11-12T08:43:45.510Z,5.93
2022-11-12T08:49:08.532Z,6.30
2022-11-12T08:54:30.475Z,8.40
2022-11-12T08:59:52.011Z,9.10
2022-11-12T09:05:14.788Z,14.07
2022-11-12T09:10:36.862Z,12.07
2022-11-12T09:16:02.491Z,6.33
2022-11-12T09:21:25.683Z,6.30
2022-11-12T09:26:48.164Z,7.47
2022-11-12T09:32:09.679Z,7.07
2022-11-12T09:37:32.574Z,5.50
2022-11-12T09:42:54.466Z,8.17
2022-11-12T09:48:21.527Z,7.80
2022-11-12T09:53:51.755Z,10.27
2022-11-12T09:59:14.434Z,5.97
2022-11-12T10:04:47.688Z,3.27
2022-11-12T10:10:16.237Z,3.93
2022-11-12T10:15:58.049Z,3.33
2022-11-12T10:21:29.377Z,3.83
2022-11-12T10:26:54.422Z,4.40
2022-11-12T10:32:17.564Z,4.20
2022-11-12T10:37:46.870Z,4.20
2022-11-12T10:43:23.022Z,4.37
2022-11-12T10:48:55.513Z,4.43
2022-11-12T10:54:31.220Z,6.17
2022-11-12T11:00:09.722Z,4.93
2022-11-12T11:05:35.450Z,5.17
2022-11-12T11:11:17.798Z,4.47
2022-11-12T11:16:51.308Z,5.70
2022-11-12T11:22:39.222Z,7.50
2022-11-12T11:28:13.165Z,3.67
2022-11-12T11:33:46.522Z,3.53
2022-11-12T11:39:19.045Z,2.77
2022-11-12T11:44:48.421Z,3.00
2022-11-12T11:50:29.574Z,2.90
2022-11-12T11:55:57.371Z,2.90
2022-11-12T12:01:29.873Z,2.80
2022-11-12T12:07:07.239Z,3.00
2022-11-12T12:12:53.567Z,2.60
2022-11-12T12:18:27.571Z,3.60
2022-11-12T12:23:55.020Z,6.33
2022-11-12T12:29:20.452Z,4.10
2022-11-12T12:34:47.761Z,4.10
2022-11-12T12:40:19.783Z,3.70
2022-11-12T12:45:43.743Z,3.40
2022-11-12T12:51:05.672Z,3.80
2022-11-12T12:56:50.400Z,9.27
2022-11-12T13:02:22.202Z,17.70
2022-11-12T13:07:45.853Z,5.83
2022-11-12T13:13:32.449Z,4.20
2022-11-12T13:19:02.772Z,5.20
2022-11-12T13:25:04.291Z,3.47
2022-11-12T13:30:55.242Z,2.87
2022-11-12T13:36:36.141Z,3.03
2022-11-12T13:42:16.702Z,2.70
2022-11-12T13:47:49.673Z,3.50
2022-11-12T13:53:14.810Z,3.40
2022-11-12T13:58:37.215Z,3.50
2022-11-12T14:03:59.968Z,4.00
2022-11-12T14:09:46.236Z,5.50
2022-11-12T14:15:26.316Z,4.53
2022-11-12T14:20:50.482Z,6.67
2022-11-12T14:26:13.631Z,4.40
2022-11-12T14:31:34.990Z,4.87
2022-11-12T14:36:57.565Z,11.30
2022-11-12T14:42:19.196Z,6.27
2022-11-12T14:47:40.450Z,6.17
2022-11-12T14:53:07.216Z,7.57
2022-11-12T14:58:28.989Z,7.10
2022-11-12T15:03:50.539Z,8.50
2022-11-12T15:09:18.779Z,12.77
2022-11-12T15:14:40.579Z,14.83
2022-11-12T15:20:04.147Z,12.83
2022-11-12T15:25:29.911Z,14.77
2022-11-12T15:31:02.390Z,16.77
2022-11-12T15:36:25.588Z,13.97
2022-11-12T15:41:48.959Z,5.77
2022-11-12T15:47:15.265Z,8.33
2022-11-12T15:52:36.518Z,6.97
2022-11-12T15:57:59.537Z,12.70
2022-11-12T16:03:22.642Z,6.77
2022-11-12T16:08:44.196Z,4.30
2022-11-12T16:14:12.170Z,4.77
2022-11-12T16:19:34.573Z,6.40
2022-11-12T16:24:56.124Z,5.93
2022-11-12T16:30:21.338Z,5.70
2022-11-12T16:35:42.799Z,7.60
2022-11-12T16:41:04.406Z,8.60
2022-11-12T16:46:30.987Z,8.40
2022-11-12T16:51:52.475Z,7.10
2022-11-12T16:57:13.901Z,7.50
2022-11-12T17:02:43.645Z,7.23
2022-11-12T17:08:06.948Z,11.07
2022-11-12T17:13:28.522Z,13.53
2022-11-12T17:18:54.335Z,11.03
2022-11-12T17:24:16.015Z,15.17
2022-11-12T17:29:37.182Z,20.27
2022-11-12T17:35:00.064Z,20.40
2022-11-12T17:40:21.622Z,21.07
2022-11-12T17:45:50.365Z,21.80
2022-11-12T17:51:15.714Z,17.90
2022-11-12T17:56:37.349Z,17.07
2022-11-12T18:01:58.971Z,24.30
2022-11-12T18:07:21.629Z,19.53
2022-11-12T18:12:43.499Z,23.70
2022-11-12T18:18:05.456Z,23.20
2022-11-12T18:23:28.560Z,23.83
2022-11-12T18:28:52.324Z,29.73
2022-11-12T18:34:15.383Z,31.23
2022-11-12T18:39:38.205Z,23.80
2022-11-12T18:44:59.711Z,24.53
2022-11-12T18:50:21.277Z,29.90
2022-11-12T18:55:44.187Z,22.30
2022-11-12T19:01:06.919Z,22.13
2022-11-12T19:06:28.277Z,31.47
2022-11-12T19:11:50.962Z,30.20
2022-11-12T19:17:12.288Z,32.07
2022-11-12T19:22:33.830Z,26.07
2022-11-12T19:27:56.622Z,24.80
2022-11-12T19:33:18.000Z,26.10
2022-11-12T19:38:39.365Z,34.93
2022-11-12T19:44:01.766Z,32.77
2022-11-12T19:49:23.039Z,36.63
2022-11-12T19:54:44.403Z,28.53
2022-11-12T20:00:08.775Z,26.40
2022-11-12T20:05:31.135Z,28.10
2022-11-12T20:10:52.441Z,26.40
2022-11-12T20:16:22.239Z,25.47
2022-11-12T20:21:46.148Z,26.50
2022-11-12T20:27:07.980Z,22.03
2022-11-12T20:32:30.594Z,21.90
2022-11-12T20:37:53.203Z,20.37
2022-11-12T20:43:16.201Z,22.30
2022-11-12T20:48:43.100Z,22.97
2022-11-12T20:54:04.743Z,23.47
2022-11-12T20:59:27.589Z,22.10
2022-11-12T21:04:53.946Z,22.07
2022-11-12T21:10:15.431Z,21.70
2022-11-12T21:15:36.943Z,19.40
2022-11-12T21:21:03.909Z,18.53
2022-11-12T21:26:25.546Z,18.73
2022-11-12T21:31:46.826Z,17.53
2022-11-12T21:37:09.454Z,18.03
2022-11-12T21:42:30.683Z,20.27
2022-11-12T21:47:52.279Z,21.20
2022-11-12T21:53:15.727Z,20.40
2022-11-12T21:58:37.922Z,20.53
2022-11-12T22:04:00.032Z,20.33
2022-11-12T22:09:22.818Z,19.67
2022-11-12T22:14:44.133Z,17.27
2022-11-12T22:20:06.325Z,17.87
2022-11-12T22:25:28.894Z,17.60
2022-11-12T22:30:50.618Z,17.23
2022-11-12T22:36:13.875Z,16.60
2022-11-12T22:41:37.414Z,17.20
2022-11-12T22:46:59.123Z,16.87
2022-11-12T22:52:20.334Z,17.70
2022-11-12T22:57:42.930Z,18.27
2022-11-12T23:03:04.192Z,18.17
2022-11-12T23:08:25.754Z,17.30
2022-11-12T23:13:49.602Z,18.57
2022-11-12T23:19:11.080Z,16.93
2022-11-12T23:24:32.238Z,16.93
2022-11-12T23:29:54.799Z,16.10
2022-11-12T23:35:16.187Z,16.30
2022-11-12T23:40:37.893Z,14.93
2022-11-12T23:46:00.870Z,15.07
2022-11-12T23:51:23.375Z,15.37
2022-11-12T23:56:44.989Z,13.90
